Dragocidental — CSYN4 — position and weather

sailwx.info

Track history (hours):
 
Tides and Currents Weather Stations Pressure Air Temp Water Temp Dewpoint Dewpoint Depression Visibility Wind Speed Wind Dir Waves Ship Positions

Dragocidental

Last reported at 2016-Jul-01 12:31 UTC. Time now 2016-Jul-01 13:35 UTC.
Position N 37°44' W 025°40'.

Length 30 m.

Type: Dredging. MMSI: 204671360.

Date/timePositionNaut miles runAvg speedWind from/ knotsBaromVisibWave heightAir tempDewpointWater temp
2016-Jul-01 12:31N 37°44' W 025°40'0 0.0
2016-Jul-01 11:31N 37°44' W 025°40'0 0.0
2016-Jul-01 10:31N 37°44' W 025°40'0 0.0
2016-Jul-01 09:31N 37°44' W 025°40'0 0.0
2016-Jul-01 08:31N 37°44' W 025°40'0 0.0
2016-Jul-01 07:31N 37°44' W 025°40'0 0.0
2016-Jul-01 06:31N 37°44' W 025°40'0 0.0
2016-Jul-01 05:31N 37°44' W 025°40'0 0.0
2016-Jul-01 04:31N 37°44' W 025°40'0 0.0
2016-Jul-01 03:31N 37°44' W 025°40'0 0.0
2016-Jul-01 02:31N 37°44' W 025°40'0 0.0
2016-Jul-01 01:31N 37°44' W 025°40'0 0.0
2016-Jul-01 00:31N 37°44' W 025°40'0 0.0
2016-Jun-30 23:31N 37°44' W 025°40'0 0.0
2016-Jun-30 22:31N 37°44' W 025°40'0 0.0
2016-Jun-30 21:31N 37°44' W 025°40'0 0.0
2016-Jun-30 20:31N 37°44' W 025°40'0 0.0
2016-Jun-30 19:28N 37°44' W 025°40'0 0.0
2016-Jun-30 18:31N 37°44' W 025°40'0 0.0
2016-Jun-30 17:31N 37°44' W 025°40'2 2.0
2016-Jun-30 16:33N 37°44' W 025°42'5 5.5
2016-Jun-30 15:33N 37°48' W 025°47'0 0.1
2016-Jun-30 14:33N 37°48' W 025°48'0 0.0
2016-Jun-30 13:33N 37°48' W 025°48'2 1.7
2016-Jun-30 12:33N 37°46' W 025°46'6 5.6
2016-Jun-30 11:34N 37°44' W 025°40'0 0.3
2016-Jun-30 10:31N 37°44' W 025°40'0 0.0
2016-Jun-30 09:31N 37°44' W 025°40'0 0.0
2016-Jun-30 08:31N 37°44' W 025°40'0 0.0
2016-Jun-30 07:31N 37°44' W 025°40'0 0.0
2016-Jun-30 06:31N 37°44' W 025°40'0 0.0
2016-Jun-30 05:31N 37°44' W 025°40'0 0.0
2016-Jun-30 04:31N 37°44' W 025°40'0 0.0
2016-Jun-30 03:31N 37°44' W 025°40'0 0.0
2016-Jun-30 02:31N 37°44' W 025°40'0 0.0
2016-Jun-30 01:31N 37°44' W 025°40'0 0.0
2016-Jun-30 00:31N 37°44' W 025°40'0 0.0
2016-Jun-29 23:31N 37°44' W 025°40'0 0.0
2016-Jun-29 22:31N 37°44' W 025°40'0 0.0
2016-Jun-29 21:31N 37°44' W 025°40'0 0.0
2016-Jun-29 20:31N 37°44' W 025°40'0 0.0
2016-Jun-29 19:31N 37°44' W 025°40'0 0.0
2016-Jun-29 18:31N 37°44' W 025°40'0 0.0
2016-Jun-29 17:31N 37°44' W 025°40'0 0.0
2016-Jun-29 16:31N 37°44' W 025°40'0 0.0
2016-Jun-29 15:31N 37°44' W 025°40'0 0.0
2016-Jun-29 14:31N 37°44' W 025°40'0 0.0
2016-Jun-29 13:31N 37°44' W 025°40'0 0.0
2016-Jun-29 12:31N 37°44' W 025°40'0 0.0
2016-Jun-29 11:31N 37°44' W 025°40'0 0.0
2016-Jun-29 10:31N 37°44' W 025°40'0 0.0
2016-Jun-29 09:31N 37°44' W 025°40'0 0.0
2016-Jun-29 08:31N 37°44' W 025°40'0 0.0
2016-Jun-29 07:31N 37°44' W 025°40'0 0.0
2016-Jun-29 06:31N 37°44' W 025°40'0 0.0
2016-Jun-29 05:31N 37°44' W 025°40'0 0.0
2016-Jun-29 04:28N 37°44' W 025°40'0 0.0
2016-Jun-29 03:31N 37°44' W 025°40'0 0.0
2016-Jun-29 02:31N 37°44' W 025°40'0 0.0
2016-Jun-29 01:31N 37°44' W 025°40'0 0.0
2016-Jun-29 00:31N 37°44' W 025°40'0 0.0
2016-Jun-28 23:31N 37°44' W 025°40'0 0.0
2016-Jun-28 22:31N 37°44' W 025°40'0 0.0
2016-Jun-28 21:31N 37°44' W 025°40'0 0.0
2016-Jun-28 20:31N 37°44' W 025°40'0 0.0
2016-Jun-28 19:31N 37°44' W 025°40'0 0.0
2016-Jun-28 18:31N 37°44' W 025°40'0 0.4
2016-Jun-28 17:34N 37°44' W 025°40'6 5.6
2016-Jun-28 16:34N 37°47' W 025°46'2 1.5
2016-Jun-28 15:32N 37°48' W 025°48'0 0.0
2016-Jun-28 14:28N 37°48' W 025°48'1 0.9
2016-Jun-28 13:33N 37°47' W 025°47'7 6.8
2016-Jun-28 12:34N 37°44' W 025°40'0 0.3
2016-Jun-28 11:31N 37°44' W 025°40'0 0.0
2016-Jun-28 10:31N 37°44' W 025°40'0 0.0
2016-Jun-28 09:31N 37°44' W 025°40'0 0.0
2016-Jun-28 08:31N 37°44' W 025°40'0 0.0
2016-Jun-28 07:31N 37°44' W 025°40'0 0.0
2016-Jun-28 06:31N 37°44' W 025°40'0 0.0
2016-Jun-28 04:31N 37°44' W 025°40'0 0.0
2016-Jun-28 03:31N 37°44' W 025°40'0 0.0
2016-Jun-28 02:31N 37°44' W 025°40'0 0.0
2016-Jun-28 01:31N 37°44' W 025°40'0 0.0
2016-Jun-28 00:31N 37°44' W 025°40'0 0.0
2016-Jun-27 23:31N 37°44' W 025°40'0 0.0
2016-Jun-27 22:31N 37°44' W 025°40'0 0.0
2016-Jun-27 21:31N 37°44' W 025°40'0 0.0
2016-Jun-27 20:31N 37°44' W 025°40'0 0.0
2016-Jun-27 19:31N 37°44' W 025°40'0 0.0
2016-Jun-27 18:31N 37°44' W 025°40'0 0.0
2016-Jun-27 17:31N 37°44' W 025°40'3 2.8
2016-Jun-27 16:33N 37°45' W 025°43'5 4.4
2016-Jun-27 15:29N 37°48' W 025°48'0 0.0
2016-Jun-27 14:32N 37°48' W 025°48'0 0.0
2016-Jun-27 13:32N 37°48' W 025°48'5 4.8
2016-Jun-27 12:33N 37°45' W 025°43'3 2.7
2016-Jun-27 11:31N 37°44' W 025°40'0 0.0
2016-Jun-27 10:31N 37°44' W 025°40'0 0.0
2016-Jun-27 09:31N 37°44' W 025°40'0 0.0
2016-Jun-27 08:31N 37°44' W 025°40'0 0.0
2016-Jun-27 07:31N 37°44' W 025°40'0 0.0
2016-Jun-27 06:31N 37°44' W 025°40'0 0.0
2016-Jun-27 05:31N 37°44' W 025°40'0 0.0
2016-Jun-27 04:31N 37°44' W 025°40'0 0.0
2016-Jun-27 03:31N 37°44' W 025°40'0 0.0
2016-Jun-27 02:31N 37°44' W 025°40'0 0.0
2016-Jun-27 01:31N 37°44' W 025°40'0 0.0
2016-Jun-27 00:31N 37°44' W 025°40'0 0.0
2016-Jun-26 23:31N 37°44' W 025°40'0 0.0
2016-Jun-26 22:31N 37°44' W 025°40'0 0.0
2016-Jun-26 21:31N 37°44' W 025°40'0 0.0
2016-Jun-26 20:31N 37°44' W 025°40'0 0.0
2016-Jun-26 19:31N 37°44' W 025°40'0 0.0
2016-Jun-26 18:31N 37°44' W 025°40'0 0.0
2016-Jun-26 17:31N 37°44' W 025°40'0 0.0
2016-Jun-26 16:31N 37°44' W 025°40'0 0.0
2016-Jun-26 15:31N 37°44' W 025°40'0 0.0
2016-Jun-26 14:31N 37°44' W 025°40'0 0.0
2016-Jun-26 13:31N 37°44' W 025°40'0 0.0
2016-Jun-26 12:31N 37°44' W 025°40'0 0.0
2016-Jun-26 11:31N 37°44' W 025°40'0 0.0
2016-Jun-26 10:31N 37°44' W 025°40'0 0.0
2016-Jun-26 09:31N 37°44' W 025°40'0 0.0
2016-Jun-26 08:31N 37°44' W 025°40'0 0.0
2016-Jun-26 07:31N 37°44' W 025°40'0 0.0
2016-Jun-26 06:31N 37°44' W 025°40'0 0.0
2016-Jun-26 05:31N 37°44' W 025°40'0 0.0
2016-Jun-26 04:31N 37°44' W 025°40'0 0.0
2016-Jun-26 03:31N 37°44' W 025°40'0 0.0
2016-Jun-26 02:31N 37°44' W 025°40'0 0.0
2016-Jun-26 01:31N 37°44' W 025°40'0 0.0
2016-Jun-26 00:31N 37°44' W 025°40'0 0.0
2016-Jun-25 23:31N 37°44' W 025°40'0 0.0
2016-Jun-25 22:31N 37°44' W 025°40'0 0.0
2016-Jun-25 21:31N 37°44' W 025°40'0 0.0
2016-Jun-25 20:31N 37°44' W 025°40'0 0.0
2016-Jun-25 19:31N 37°44' W 025°40'0 0.0
2016-Jun-25 18:31N 37°44' W 025°40'0 0.0
2016-Jun-25 17:31N 37°44' W 025°40'0 0.0
2016-Jun-25 16:31N 37°44' W 025°40'0 0.0
2016-Jun-25 15:31N 37°44' W 025°40'0 0.0
2016-Jun-25 14:28N 37°44' W 025°40'0 0.0
2016-Jun-25 13:31N 37°44' W 025°40'0 0.0
2016-Jun-25 12:31N 37°44' W 025°40'0 0.0
2016-Jun-25 11:31N 37°44' W 025°40'0 0.0
2016-Jun-25 10:31N 37°44' W 025°40'0 0.0
2016-Jun-25 09:31N 37°44' W 025°40'0 0.0
2016-Jun-25 08:31N 37°44' W 025°40'0 0.0
2016-Jun-25 07:31N 37°44' W 025°40'0 0.0
2016-Jun-25 06:31N 37°44' W 025°40'0 0.0
2016-Jun-25 05:31N 37°44' W 025°40'0 0.0
2016-Jun-25 04:31N 37°44' W 025°40'0 0.0
2016-Jun-25 03:31N 37°44' W 025°40'0 0.0
2016-Jun-25 02:31N 37°44' W 025°40'0 0.0
2016-Jun-25 01:31N 37°44' W 025°40'0 0.0
2016-Jun-25 00:31N 37°44' W 025°40'0 0.0
2016-Jun-24 23:31N 37°44' W 025°40'0 0.0
2016-Jun-24 22:31N 37°44' W 025°40'0 0.0
2016-Jun-24 21:31N 37°44' W 025°40'0 0.0
2016-Jun-24 20:31N 37°44' W 025°40'0 0.0
2016-Jun-24 19:31N 37°44' W 025°40'0 0.0
2016-Jun-24 18:28N 37°44' W 025°40'0 0.0
2016-Jun-24 17:31N 37°44' W 025°40'3 2.8
2016-Jun-24 16:33N 37°45' W 025°43'5 4.6
2016-Jun-24 15:32N 37°48' W 025°48'0 0.0
2016-Jun-24 14:32N 37°48' W 025°48'0 0.0
2016-Jun-24 13:32N 37°48' W 025°48'1 0.7
2016-Jun-24 12:33N 37°47' W 025°47'7 6.5
2016-Jun-24 11:33N 37°44' W 025°40'1 0.6
2016-Jun-24 10:33N 37°44' W 025°40'0 0.0
2016-Jun-24 09:33N 37°44' W 025°40'0 0.0
2016-Jun-24 08:33N 37°44' W 025°40'0 0.0
2016-Jun-24 07:33N 37°44' W 025°40'0 0.0
2016-Jun-24 04:33N 37°44' W 025°40'0 0.0
2016-Jun-24 03:33N 37°44' W 025°40'0 0.0
2016-Jun-24 02:33N 37°44' W 025°40'0 0.0
2016-Jun-24 01:33N 37°44' W 025°40'0 0.0
2016-Jun-24 00:33N 37°44' W 025°40'0 0.0
2016-Jun-23 23:33N 37°44' W 025°40'0 0.0
2016-Jun-23 22:33N 37°44' W 025°40'0 0.0
2016-Jun-23 21:33N 37°44' W 025°40'0 0.0
2016-Jun-23 20:33N 37°44' W 025°40'0 0.0
2016-Jun-23 19:33N 37°44' W 025°40'0 0.0
2016-Jun-23 18:33N 37°44' W 025°40'0 0.0
2016-Jun-23 17:33N 37°44' W 025°40'0 0.4
2016-Jun-23 16:33N 37°44' W 025°40'5 5.2
2016-Jun-23 15:33N 37°46' W 025°46'2 2.1
2016-Jun-23 14:33N 37°48' W 025°48'0 0.0
2016-Jun-23 13:33N 37°48' W 025°48'2 1.7
2016-Jun-23 12:33N 37°46' W 025°46'6 6.0
2016-Jun-23 11:33N 37°44' W 025°39'0 0.4
2016-Jun-23 10:33N 37°44' W 025°40'0 0.0
2016-Jun-23 09:32N 37°44' W 025°40'0 0.0
2016-Jun-23 08:32N 37°44' W 025°40'0 0.0
2016-Jun-23 07:32N 37°44' W 025°40'0 0.0
2016-Jun-23 05:33N 37°44' W 025°40'0 0.0
2016-Jun-23 04:33N 37°44' W 025°40'0 0.0
2016-Jun-23 03:33N 37°44' W 025°40'0 0.0
2016-Jun-23 02:32N 37°44' W 025°40'0 0.0
2016-Jun-23 01:32N 37°44' W 025°40'0 0.0
2016-Jun-23 00:33N 37°44' W 025°40'0 0.0
2016-Jun-22 23:33N 37°44' W 025°40'0 0.0
2016-Jun-22 22:33N 37°44' W 025°40'0 0.0
2016-Jun-22 21:33N 37°44' W 025°40'0 0.0
2016-Jun-22 20:33N 37°44' W 025°40'0 0.0
2016-Jun-22 19:33N 37°44' W 025°40'0 0.0
2016-Jun-22 18:33N 37°44' W 025°40'0 0.5
2016-Jun-22 17:33N 37°44' W 025°40'5 5.4
2016-Jun-22 16:33N 37°46' W 025°46'2 1.7
2016-Jun-22 15:33N 37°48' W 025°48'0 0.0
2016-Jun-22 14:33N 37°48' W 025°48'0 0.0
2016-Jun-22 13:33N 37°48' W 025°48'5 5.4
2016-Jun-22 12:33N 37°44' W 025°43'2 2.1
2016-Jun-22 11:31N 37°44' W 025°40'0 0.0
2016-Jun-22 10:31N 37°44' W 025°40'0 0.0
2016-Jun-22 09:31N 37°44' W 025°40'0 0.0
2016-Jun-22 08:31N 37°44' W 025°40'0 0.0
2016-Jun-22 07:31N 37°44' W 025°40'0 0.0
2016-Jun-22 06:31N 37°44' W 025°40'0 0.0
2016-Jun-22 05:31N 37°44' W 025°40'0 0.0
2016-Jun-22 04:31N 37°44' W 025°40'0 0.0
2016-Jun-22 03:31N 37°44' W 025°40'0 0.0
2016-Jun-22 02:31N 37°44' W 025°40'0 0.0
2016-Jun-22 01:31N 37°44' W 025°40'0 0.0
2016-Jun-22 00:31N 37°44' W 025°40'0 0.0
2016-Jun-21 23:31N 37°44' W 025°40'0 0.0
2016-Jun-21 22:31N 37°44' W 025°40'0 0.0
2016-Jun-21 21:31N 37°44' W 025°40'0 0.0
2016-Jun-21 20:31N 37°44' W 025°40'0 0.0
2016-Jun-21 19:31N 37°44' W 025°40'0 0.0
2016-Jun-21 18:31N 37°44' W 025°40'0 0.0
2016-Jun-21 17:31N 37°44' W 025°40'2 2.3
2016-Jun-21 16:33N 37°44' W 025°43'5 5.2
2016-Jun-21 15:32N 37°48' W 025°48'0 0.0
2016-Jun-21 14:29N 37°48' W 025°48'0 0.0
2016-Jun-21 13:32N 37°48' W 025°48'4 3.7
2016-Jun-21 12:33N 37°45' W 025°44'  
Track history (hours):
 
Tides and Currents Weather Stations Pressure Air Temp Water Temp Dewpoint Dewpoint Depression Visibility Wind Speed Wind Dir Waves Ship Positions

Dragocidental

Last reported at 2016-Jul-01 12:31 UTC. Time now 2016-Jul-01 13:35 UTC.
Position N 37°44' W 025°40'.

Length 30 m.

Type: Dredging. MMSI: 204671360.

Date/timePositionNaut miles runAvg speedWind from/ knotsBaromVisibWave heightAir tempDewpointWater temp
2016-Jul-01 12:31N 37°44' W 025°40'0 0.0
2016-Jul-01 11:31N 37°44' W 025°40'0 0.0
2016-Jul-01 10:31N 37°44' W 025°40'0 0.0
2016-Jul-01 09:31N 37°44' W 025°40'0 0.0
2016-Jul-01 08:31N 37°44' W 025°40'0 0.0
2016-Jul-01 07:31N 37°44' W 025°40'0 0.0
2016-Jul-01 06:31N 37°44' W 025°40'0 0.0
2016-Jul-01 05:31N 37°44' W 025°40'0 0.0
2016-Jul-01 04:31N 37°44' W 025°40'0 0.0
2016-Jul-01 03:31N 37°44' W 025°40'0 0.0
2016-Jul-01 02:31N 37°44' W 025°40'0 0.0
2016-Jul-01 01:31N 37°44' W 025°40'0 0.0
2016-Jul-01 00:31N 37°44' W 025°40'0 0.0
2016-Jun-30 23:31N 37°44' W 025°40'0 0.0
2016-Jun-30 22:31N 37°44' W 025°40'0 0.0
2016-Jun-30 21:31N 37°44' W 025°40'0 0.0
2016-Jun-30 20:31N 37°44' W 025°40'0 0.0
2016-Jun-30 19:28N 37°44' W 025°40'0 0.0
2016-Jun-30 18:31N 37°44' W 025°40'0 0.0
2016-Jun-30 17:31N 37°44' W 025°40'2 2.0
2016-Jun-30 16:33N 37°44' W 025°42'5 5.5
2016-Jun-30 15:33N 37°48' W 025°47'0 0.1
2016-Jun-30 14:33N 37°48' W 025°48'0 0.0
2016-Jun-30 13:33N 37°48' W 025°48'2 1.7
2016-Jun-30 12:33N 37°46' W 025°46'6 5.6
2016-Jun-30 11:34N 37°44' W 025°40'0 0.3
2016-Jun-30 10:31N 37°44' W 025°40'0 0.0
2016-Jun-30 09:31N 37°44' W 025°40'0 0.0
2016-Jun-30 08:31N 37°44' W 025°40'0 0.0
2016-Jun-30 07:31N 37°44' W 025°40'0 0.0
2016-Jun-30 06:31N 37°44' W 025°40'0 0.0
2016-Jun-30 05:31N 37°44' W 025°40'0 0.0
2016-Jun-30 04:31N 37°44' W 025°40'0 0.0
2016-Jun-30 03:31N 37°44' W 025°40'0 0.0
2016-Jun-30 02:31N 37°44' W 025°40'0 0.0
2016-Jun-30 01:31N 37°44' W 025°40'0 0.0
2016-Jun-30 00:31N 37°44' W 025°40'0 0.0
2016-Jun-29 23:31N 37°44' W 025°40'0 0.0
2016-Jun-29 22:31N 37°44' W 025°40'0 0.0
2016-Jun-29 21:31N 37°44' W 025°40'0 0.0
2016-Jun-29 20:31N 37°44' W 025°40'0 0.0
2016-Jun-29 19:31N 37°44' W 025°40'0 0.0
2016-Jun-29 18:31N 37°44' W 025°40'0 0.0
2016-Jun-29 17:31N 37°44' W 025°40'0 0.0
2016-Jun-29 16:31N 37°44' W 025°40'0 0.0
2016-Jun-29 15:31N 37°44' W 025°40'0 0.0
2016-Jun-29 14:31N 37°44' W 025°40'0 0.0
2016-Jun-29 13:31N 37°44' W 025°40'0 0.0
2016-Jun-29 12:31N 37°44' W 025°40'0 0.0
2016-Jun-29 11:31N 37°44' W 025°40'0 0.0
2016-Jun-29 10:31N 37°44' W 025°40'0 0.0
2016-Jun-29 09:31N 37°44' W 025°40'0 0.0
2016-Jun-29 08:31N 37°44' W 025°40'0 0.0
2016-Jun-29 07:31N 37°44' W 025°40'0 0.0
2016-Jun-29 06:31N 37°44' W 025°40'0 0.0
2016-Jun-29 05:31N 37°44' W 025°40'0 0.0
2016-Jun-29 04:28N 37°44' W 025°40'0 0.0
2016-Jun-29 03:31N 37°44' W 025°40'0 0.0
2016-Jun-29 02:31N 37°44' W 025°40'0 0.0
2016-Jun-29 01:31N 37°44' W 025°40'0 0.0
2016-Jun-29 00:31N 37°44' W 025°40'0 0.0
2016-Jun-28 23:31N 37°44' W 025°40'0 0.0
2016-Jun-28 22:31N 37°44' W 025°40'0 0.0
2016-Jun-28 21:31N 37°44' W 025°40'0 0.0
2016-Jun-28 20:31N 37°44' W 025°40'0 0.0
2016-Jun-28 19:31N 37°44' W 025°40'0 0.0
2016-Jun-28 18:31N 37°44' W 025°40'0 0.4
2016-Jun-28 17:34N 37°44' W 025°40'6 5.6
2016-Jun-28 16:34N 37°47' W 025°46'2 1.5
2016-Jun-28 15:32N 37°48' W 025°48'0 0.0
2016-Jun-28 14:28N 37°48' W 025°48'1 0.9
2016-Jun-28 13:33N 37°47' W 025°47'7 6.8
2016-Jun-28 12:34N 37°44' W 025°40'0 0.3
2016-Jun-28 11:31N 37°44' W 025°40'0 0.0
2016-Jun-28 10:31N 37°44' W 025°40'0 0.0
2016-Jun-28 09:31N 37°44' W 025°40'0 0.0
2016-Jun-28 08:31N 37°44' W 025°40'0 0.0
2016-Jun-28 07:31N 37°44' W 025°40'0 0.0
2016-Jun-28 06:31N 37°44' W 025°40'0 0.0
2016-Jun-28 04:31N 37°44' W 025°40'0 0.0
2016-Jun-28 03:31N 37°44' W 025°40'0 0.0
2016-Jun-28 02:31N 37°44' W 025°40'0 0.0
2016-Jun-28 01:31N 37°44' W 025°40'0 0.0
2016-Jun-28 00:31N 37°44' W 025°40'0 0.0
2016-Jun-27 23:31N 37°44' W 025°40'0 0.0
2016-Jun-27 22:31N 37°44' W 025°40'0 0.0
2016-Jun-27 21:31N 37°44' W 025°40'0 0.0
2016-Jun-27 20:31N 37°44' W 025°40'0 0.0
2016-Jun-27 19:31N 37°44' W 025°40'0 0.0
2016-Jun-27 18:31N 37°44' W 025°40'0 0.0
2016-Jun-27 17:31N 37°44' W 025°40'3 2.8
2016-Jun-27 16:33N 37°45' W 025°43'5 4.4
2016-Jun-27 15:29N 37°48' W 025°48'0 0.0
2016-Jun-27 14:32N 37°48' W 025°48'0 0.0
2016-Jun-27 13:32N 37°48' W 025°48'5 4.8
2016-Jun-27 12:33N 37°45' W 025°43'3 2.7
2016-Jun-27 11:31N 37°44' W 025°40'0 0.0
2016-Jun-27 10:31N 37°44' W 025°40'0 0.0
2016-Jun-27 09:31N 37°44' W 025°40'0 0.0
2016-Jun-27 08:31N 37°44' W 025°40'0 0.0
2016-Jun-27 07:31N 37°44' W 025°40'0 0.0
2016-Jun-27 06:31N 37°44' W 025°40'0 0.0
2016-Jun-27 05:31N 37°44' W 025°40'0 0.0
2016-Jun-27 04:31N 37°44' W 025°40'0 0.0
2016-Jun-27 03:31N 37°44' W 025°40'0 0.0
2016-Jun-27 02:31N 37°44' W 025°40'0 0.0
2016-Jun-27 01:31N 37°44' W 025°40'0 0.0
2016-Jun-27 00:31N 37°44' W 025°40'0 0.0
2016-Jun-26 23:31N 37°44' W 025°40'0 0.0
2016-Jun-26 22:31N 37°44' W 025°40'0 0.0
2016-Jun-26 21:31N 37°44' W 025°40'0 0.0
2016-Jun-26 20:31N 37°44' W 025°40'0 0.0
2016-Jun-26 19:31N 37°44' W 025°40'0 0.0
2016-Jun-26 18:31N 37°44' W 025°40'0 0.0
2016-Jun-26 17:31N 37°44' W 025°40'0 0.0
2016-Jun-26 16:31N 37°44' W 025°40'0 0.0
2016-Jun-26 15:31N 37°44' W 025°40'0 0.0
2016-Jun-26 14:31N 37°44' W 025°40'0 0.0
2016-Jun-26 13:31N 37°44' W 025°40'0 0.0
2016-Jun-26 12:31N 37°44' W 025°40'0 0.0
2016-Jun-26 11:31N 37°44' W 025°40'0 0.0
2016-Jun-26 10:31N 37°44' W 025°40'0 0.0
2016-Jun-26 09:31N 37°44' W 025°40'0 0.0
2016-Jun-26 08:31N 37°44' W 025°40'0 0.0
2016-Jun-26 07:31N 37°44' W 025°40'0 0.0
2016-Jun-26 06:31N 37°44' W 025°40'0 0.0
2016-Jun-26 05:31N 37°44' W 025°40'0 0.0
2016-Jun-26 04:31N 37°44' W 025°40'0 0.0
2016-Jun-26 03:31N 37°44' W 025°40'0 0.0
2016-Jun-26 02:31N 37°44' W 025°40'0 0.0
2016-Jun-26 01:31N 37°44' W 025°40'0 0.0
2016-Jun-26 00:31N 37°44' W 025°40'0 0.0
2016-Jun-25 23:31N 37°44' W 025°40'0 0.0
2016-Jun-25 22:31N 37°44' W 025°40'0 0.0
2016-Jun-25 21:31N 37°44' W 025°40'0 0.0
2016-Jun-25 20:31N 37°44' W 025°40'0 0.0
2016-Jun-25 19:31N 37°44' W 025°40'0 0.0
2016-Jun-25 18:31N 37°44' W 025°40'0 0.0
2016-Jun-25 17:31N 37°44' W 025°40'0 0.0
2016-Jun-25 16:31N 37°44' W 025°40'0 0.0
2016-Jun-25 15:31N 37°44' W 025°40'0 0.0
2016-Jun-25 14:28N 37°44' W 025°40'0 0.0
2016-Jun-25 13:31N 37°44' W 025°40'0 0.0
2016-Jun-25 12:31N 37°44' W 025°40'0 0.0
2016-Jun-25 11:31N 37°44' W 025°40'0 0.0
2016-Jun-25 10:31N 37°44' W 025°40'0 0.0
2016-Jun-25 09:31N 37°44' W 025°40'0 0.0
2016-Jun-25 08:31N 37°44' W 025°40'0 0.0
2016-Jun-25 07:31N 37°44' W 025°40'0 0.0
2016-Jun-25 06:31N 37°44' W 025°40'0 0.0
2016-Jun-25 05:31N 37°44' W 025°40'0 0.0
2016-Jun-25 04:31N 37°44' W 025°40'0 0.0
2016-Jun-25 03:31N 37°44' W 025°40'0 0.0
2016-Jun-25 02:31N 37°44' W 025°40'0 0.0
2016-Jun-25 01:31N 37°44' W 025°40'0 0.0
2016-Jun-25 00:31N 37°44' W 025°40'0 0.0
2016-Jun-24 23:31N 37°44' W 025°40'0 0.0
2016-Jun-24 22:31N 37°44' W 025°40'0 0.0
2016-Jun-24 21:31N 37°44' W 025°40'0 0.0
2016-Jun-24 20:31N 37°44' W 025°40'0 0.0
2016-Jun-24 19:31N 37°44' W 025°40'0 0.0
2016-Jun-24 18:28N 37°44' W 025°40'0 0.0
2016-Jun-24 17:31N 37°44' W 025°40'3 2.8
2016-Jun-24 16:33N 37°45' W 025°43'5 4.6
2016-Jun-24 15:32N 37°48' W 025°48'0 0.0
2016-Jun-24 14:32N 37°48' W 025°48'0 0.0
2016-Jun-24 13:32N 37°48' W 025°48'1 0.7
2016-Jun-24 12:33N 37°47' W 025°47'7 6.5
2016-Jun-24 11:33N 37°44' W 025°40'1 0.6
2016-Jun-24 10:33N 37°44' W 025°40'0 0.0
2016-Jun-24 09:33N 37°44' W 025°40'0 0.0
2016-Jun-24 08:33N 37°44' W 025°40'0 0.0
2016-Jun-24 07:33N 37°44' W 025°40'0 0.0
2016-Jun-24 04:33N 37°44' W 025°40'0 0.0
2016-Jun-24 03:33N 37°44' W 025°40'0 0.0
2016-Jun-24 02:33N 37°44' W 025°40'0 0.0
2016-Jun-24 01:33N 37°44' W 025°40'0 0.0
2016-Jun-24 00:33N 37°44' W 025°40'0 0.0
2016-Jun-23 23:33N 37°44' W 025°40'0 0.0
2016-Jun-23 22:33N 37°44' W 025°40'0 0.0
2016-Jun-23 21:33N 37°44' W 025°40'0 0.0
2016-Jun-23 20:33N 37°44' W 025°40'0 0.0
2016-Jun-23 19:33N 37°44' W 025°40'0 0.0
2016-Jun-23 18:33N 37°44' W 025°40'0 0.0
2016-Jun-23 17:33N 37°44' W 025°40'0 0.4
2016-Jun-23 16:33N 37°44' W 025°40'5 5.2
2016-Jun-23 15:33N 37°46' W 025°46'2 2.1
2016-Jun-23 14:33N 37°48' W 025°48'0 0.0
2016-Jun-23 13:33N 37°48' W 025°48'2 1.7
2016-Jun-23 12:33N 37°46' W 025°46'6 6.0
2016-Jun-23 11:33N 37°44' W 025°39'0 0.4
2016-Jun-23 10:33N 37°44' W 025°40'0 0.0
2016-Jun-23 09:32N 37°44' W 025°40'0 0.0
2016-Jun-23 08:32N 37°44' W 025°40'0 0.0
2016-Jun-23 07:32N 37°44' W 025°40'0 0.0
2016-Jun-23 05:33N 37°44' W 025°40'0 0.0
2016-Jun-23 04:33N 37°44' W 025°40'0 0.0
2016-Jun-23 03:33N 37°44' W 025°40'0 0.0
2016-Jun-23 02:32N 37°44' W 025°40'0 0.0
2016-Jun-23 01:32N 37°44' W 025°40'0 0.0
2016-Jun-23 00:33N 37°44' W 025°40'0 0.0
2016-Jun-22 23:33N 37°44' W 025°40'0 0.0
2016-Jun-22 22:33N 37°44' W 025°40'0 0.0
2016-Jun-22 21:33N 37°44' W 025°40'0 0.0
2016-Jun-22 20:33N 37°44' W 025°40'0 0.0
2016-Jun-22 19:33N 37°44' W 025°40'0 0.0
2016-Jun-22 18:33N 37°44' W 025°40'0 0.5
2016-Jun-22 17:33N 37°44' W 025°40'5 5.4
2016-Jun-22 16:33N 37°46' W 025°46'2 1.7
2016-Jun-22 15:33N 37°48' W 025°48'0 0.0
2016-Jun-22 14:33N 37°48' W 025°48'0 0.0
2016-Jun-22 13:33N 37°48' W 025°48'5 5.4
2016-Jun-22 12:33N 37°44' W 025°43'2 2.1
2016-Jun-22 11:31N 37°44' W 025°40'0 0.0
2016-Jun-22 10:31N 37°44' W 025°40'0 0.0
2016-Jun-22 09:31N 37°44' W 025°40'0 0.0
2016-Jun-22 08:31N 37°44' W 025°40'0 0.0
2016-Jun-22 07:31N 37°44' W 025°40'0 0.0
2016-Jun-22 06:31N 37°44' W 025°40'0 0.0
2016-Jun-22 05:31N 37°44' W 025°40'0 0.0
2016-Jun-22 04:31N 37°44' W 025°40'0 0.0
2016-Jun-22 03:31N 37°44' W 025°40'0 0.0
2016-Jun-22 02:31N 37°44' W 025°40'0 0.0
2016-Jun-22 01:31N 37°44' W 025°40'0 0.0
2016-Jun-22 00:31N 37°44' W 025°40'0 0.0
2016-Jun-21 23:31N 37°44' W 025°40'0 0.0
2016-Jun-21 22:31N 37°44' W 025°40'0 0.0
2016-Jun-21 21:31N 37°44' W 025°40'0 0.0
2016-Jun-21 20:31N 37°44' W 025°40'0 0.0
2016-Jun-21 19:31N 37°44' W 025°40'0 0.0
2016-Jun-21 18:31N 37°44' W 025°40'0 0.0
2016-Jun-21 17:31N 37°44' W 025°40'2 2.3
2016-Jun-21 16:33N 37°44' W 025°43'5 5.2
2016-Jun-21 15:32N 37°48' W 025°48'0 0.0
2016-Jun-21 14:29N 37°48' W 025°48'0 0.0
2016-Jun-21 13:32N 37°48' W 025°48'4 3.7
2016-Jun-21 12:33N 37°45' W 025°44'  

Dump ship's entire track history